createdAt,value
2018-10-09T00:00:53.072Z,891.90
2018-10-09T00:01:52.991Z,891.93
2018-10-09T00:02:52.983Z,891.91
2018-10-09T00:03:52.975Z,891.97
2018-10-09T00:04:52.960Z,891.94
2018-10-09T00:05:52.955Z,891.99
2018-10-09T00:06:52.944Z,891.96
2018-10-09T00:07:52.924Z,891.95
2018-10-09T00:08:52.922Z,891.95
2018-10-09T00:09:52.912Z,891.96
2018-10-09T00:10:52.894Z,892.00
2018-10-09T00:11:52.887Z,892.00
2018-10-09T00:12:52.871Z,891.98
2018-10-09T00:13:52.862Z,891.97
2018-10-09T00:14:52.849Z,892.02
2018-10-09T00:15:52.847Z,892.01
2018-10-09T00:16:52.829Z,892.02
2018-10-09T00:17:52.822Z,892.03
2018-10-09T00:18:52.806Z,892.01
2018-10-09T00:19:52.799Z,892.06
2018-10-09T00:20:52.788Z,892.04
2018-10-09T00:21:52.774Z,892.07
2018-10-09T00:22:52.763Z,892.05
2018-10-09T00:23:52.753Z,892.00
2018-10-09T00:24:52.743Z,892.02
2018-10-09T00:25:52.739Z,892.01
2018-10-09T00:26:52.727Z,891.99
2018-10-09T00:27:52.716Z,891.96
2018-10-09T00:28:52.699Z,891.99
2018-10-09T00:29:52.683Z,891.97
2018-10-09T00:30:52.679Z,891.95
2018-10-09T00:31:52.667Z,891.98
2018-10-09T00:32:52.649Z,891.97
2018-10-09T00:33:52.640Z,891.98
2018-10-09T00:34:52.635Z,891.95
2018-10-09T00:35:52.620Z,891.93
2018-10-09T00:36:52.611Z,891.97
2018-10-09T00:37:52.599Z,891.97
2018-10-09T00:38:52.593Z,891.96
2018-10-09T00:39:52.575Z,891.96
2018-10-09T00:40:52.574Z,891.99
2018-10-09T00:41:52.555Z,891.95
2018-10-09T00:42:52.547Z,891.95
2018-10-09T00:43:52.528Z,891.93
2018-10-09T00:44:52.520Z,891.92
2018-10-09T00:45:52.513Z,891.92
2018-10-09T00:46:52.508Z,891.93
2018-10-09T00:47:52.496Z,891.94
2018-10-09T00:48:52.481Z,891.96
2018-10-09T00:49:52.473Z,891.95
2018-10-09T00:50:52.457Z,891.94
2018-10-09T00:51:52.449Z,891.88
2018-10-09T00:52:52.436Z,891.93
2018-10-09T00:53:52.423Z,891.94
2018-10-09T00:54:52.410Z,891.92
2018-10-09T00:55:52.403Z,891.91
2018-10-09T00:56:52.390Z,891.96
2018-10-09T00:57:52.375Z,891.93
2018-10-09T00:58:52.375Z,891.91
2018-10-09T00:59:52.358Z,891.94
2018-10-09T01:00:52.344Z,891.95
2018-10-09T01:01:52.340Z,891.91
2018-10-09T01:02:52.325Z,891.92
2018-10-09T01:03:52.315Z,891.92
2018-10-09T01:04:52.300Z,891.94
2018-10-09T01:05:52.293Z,891.89
2018-10-09T01:06:52.281Z,891.90
2018-10-09T01:07:52.268Z,891.92
2018-10-09T01:08:52.257Z,891.89
2018-10-09T01:09:52.250Z,891.88
2018-10-09T01:10:52.231Z,891.92
2018-10-09T01:11:52.223Z,891.89
2018-10-09T01:12:52.218Z,891.92
2018-10-09T01:13:52.203Z,891.93
2018-10-09T01:14:52.194Z,891.90
2018-10-09T01:15:52.180Z,891.94
2018-10-09T01:16:52.165Z,891.91
2018-10-09T01:17:52.197Z,891.93
2018-10-09T01:18:52.147Z,891.93
2018-10-09T01:19:52.140Z,891.95
2018-10-09T01:20:52.128Z,891.92
2018-10-09T01:21:52.114Z,891.93
2018-10-09T01:22:52.097Z,891.92
2018-10-09T01:23:52.093Z,891.94
2018-10-09T01:24:52.079Z,891.92
2018-10-09T01:25:52.075Z,891.91
2018-10-09T01:26:52.057Z,891.90
2018-10-09T01:27:52.047Z,891.88
2018-10-09T01:28:52.035Z,891.90
2018-10-09T01:29:52.024Z,891.91
2018-10-09T01:30:52.011Z,891.91
2018-10-09T01:31:51.997Z,891.89
2018-10-09T01:32:51.984Z,891.91
2018-10-09T01:33:51.978Z,891.91
2018-10-09T01:34:51.967Z,891.88
2018-10-09T01:35:51.953Z,891.85
2018-10-09T01:36:51.949Z,891.86
2018-10-09T01:37:51.931Z,891.85
2018-10-09T01:38:51.922Z,891.83
2018-10-09T01:39:51.910Z,891.84
2018-10-09T01:40:51.902Z,891.86
2018-10-09T01:41:51.895Z,891.84
2018-10-09T01:42:51.882Z,891.83
2018-10-09T01:43:51.861Z,891.81
2018-10-09T01:44:51.857Z,891.78
2018-10-09T01:45:51.847Z,891.81
2018-10-09T01:46:51.831Z,891.80
2018-10-09T01:47:51.821Z,891.80
2018-10-09T01:48:51.810Z,891.80
2018-10-09T01:49:51.800Z,891.81
2018-10-09T01:50:51.788Z,891.84
2018-10-09T01:51:51.780Z,891.82
2018-10-09T01:52:51.768Z,891.79
2018-10-09T01:53:51.755Z,891.81
2018-10-09T01:54:51.740Z,891.79
2018-10-09T01:55:51.734Z,891.83
2018-10-09T01:56:51.719Z,891.82
2018-10-09T01:57:51.708Z,891.82
2018-10-09T01:58:51.697Z,891.81
2018-10-09T01:59:51.683Z,891.85
2018-10-09T02:00:51.675Z,891.84
2018-10-09T02:01:51.663Z,891.87
2018-10-09T02:02:51.653Z,891.85
2018-10-09T02:03:51.648Z,891.86
2018-10-09T02:04:51.632Z,891.87
2018-10-09T02:05:51.619Z,891.86
2018-10-09T02:06:51.606Z,891.87
2018-10-09T02:07:51.598Z,891.87
2018-10-09T02:08:51.586Z,891.85
2018-10-09T02:09:51.578Z,891.85
2018-10-09T02:10:51.568Z,891.82
2018-10-09T02:11:51.555Z,891.80
2018-10-09T02:12:51.541Z,891.80
2018-10-09T02:13:51.529Z,891.76
2018-10-09T02:14:51.533Z,891.79
2018-10-09T02:15:51.505Z,891.75
2018-10-09T02:16:51.503Z,891.79
2018-10-09T02:17:51.485Z,891.79
2018-10-09T02:18:51.469Z,891.80
2018-10-09T02:19:51.466Z,891.79
2018-10-09T02:20:51.449Z,891.77
2018-10-09T02:21:51.440Z,891.81
2018-10-09T02:22:51.430Z,891.78
2018-10-09T02:23:51.418Z,891.76
2018-10-09T02:24:51.404Z,891.76
2018-10-09T02:25:51.399Z,891.78
2018-10-09T02:26:51.386Z,891.74
2018-10-09T02:27:51.367Z,891.77
2018-10-09T02:28:51.363Z,891.74
2018-10-09T02:29:51.355Z,891.75
2018-10-09T02:30:51.342Z,891.74
2018-10-09T02:31:51.336Z,891.75
2018-10-09T02:32:51.315Z,891.75
2018-10-09T02:33:51.305Z,891.73
2018-10-09T02:34:51.296Z,891.71
2018-10-09T02:35:51.282Z,891.70
2018-10-09T02:36:51.280Z,891.72
2018-10-09T02:37:51.256Z,891.72
2018-10-09T02:38:51.253Z,891.73
2018-10-09T02:39:51.234Z,891.72
2018-10-09T02:40:51.226Z,891.73
2018-10-09T02:41:51.216Z,891.75
2018-10-09T02:42:51.204Z,891.70
2018-10-09T02:43:51.189Z,891.70
2018-10-09T02:44:51.183Z,891.71
2018-10-09T02:45:51.171Z,891.72
2018-10-09T02:46:51.161Z,891.72
2018-10-09T02:47:51.146Z,891.70
2018-10-09T02:48:51.140Z,891.71
2018-10-09T02:49:51.126Z,891.71
2018-10-09T02:50:51.117Z,891.68
2018-10-09T02:51:51.101Z,891.71
2018-10-09T02:52:51.093Z,891.73
2018-10-09T02:53:51.079Z,891.68
2018-10-09T02:54:51.071Z,891.70
2018-10-09T02:55:51.055Z,891.72
2018-10-09T02:56:51.050Z,891.77
2018-10-09T02:57:51.037Z,891.75
2018-10-09T02:58:51.021Z,891.77
2018-10-09T02:59:51.007Z,891.71
2018-10-09T03:00:50.996Z,891.69
2018-10-09T03:01:50.990Z,891.69
2018-10-09T03:02:50.980Z,891.75
2018-10-09T03:03:50.963Z,891.75
2018-10-09T03:04:50.954Z,891.77
2018-10-09T03:05:50.942Z,891.73
2018-10-09T03:06:50.930Z,891.76
2018-10-09T03:07:50.920Z,891.76
2018-10-09T03:08:50.909Z,891.79
2018-10-09T03:09:50.895Z,891.78
2018-10-09T03:10:50.885Z,891.80
2018-10-09T03:11:50.882Z,891.80
2018-10-09T03:12:50.864Z,891.80
2018-10-09T03:13:50.854Z,891.79
2018-10-09T03:14:50.838Z,891.80
2018-10-09T03:15:50.826Z,891.81
2018-10-09T03:16:50.817Z,891.84
2018-10-09T03:17:50.808Z,891.81
2018-10-09T03:18:50.789Z,891.81
2018-10-09T03:19:50.783Z,891.84
2018-10-09T03:20:50.768Z,891.83
2018-10-09T03:21:50.762Z,891.83
2018-10-09T03:22:50.747Z,891.81
2018-10-09T03:23:50.731Z,891.78
2018-10-09T03:24:50.724Z,891.78
2018-10-09T03:25:50.712Z,891.77
2018-10-09T03:26:50.702Z,891.80
2018-10-09T03:27:50.693Z,891.79
2018-10-09T03:28:50.681Z,891.79
2018-10-09T03:29:50.666Z,891.77
2018-10-09T03:30:50.656Z,891.78
2018-10-09T03:31:50.652Z,891.79
2018-10-09T03:32:50.634Z,891.77
2018-10-09T03:33:50.624Z,891.78
2018-10-09T03:34:50.605Z,891.77
2018-10-09T03:35:50.595Z,891.77
2018-10-09T03:36:50.590Z,891.79
2018-10-09T03:37:50.569Z,891.84
2018-10-09T03:38:50.559Z,891.81
2018-10-09T03:39:50.551Z,891.84
2018-10-09T03:40:50.544Z,891.84
2018-10-09T03:41:50.532Z,891.78
2018-10-09T03:42:50.520Z,891.80
2018-10-09T03:43:50.516Z,891.74
2018-10-09T03:44:50.495Z,891.77
2018-10-09T03:45:50.487Z,891.76
2018-10-09T03:46:50.467Z,891.77
2018-10-09T03:47:50.466Z,891.78
2018-10-09T03:48:50.444Z,891.76
2018-10-09T03:49:50.441Z,891.77
2018-10-09T03:50:50.427Z,891.74
2018-10-09T03:51:50.410Z,891.74
2018-10-09T03:52:50.404Z,891.72
2018-10-09T03:53:50.389Z,891.70
2018-10-09T03:54:50.386Z,891.73
2018-10-09T03:55:50.365Z,891.72
2018-10-09T03:56:50.356Z,891.72
2018-10-09T03:57:50.345Z,891.69
2018-10-09T03:58:50.336Z,891.70
2018-10-09T03:59:50.325Z,891.71
2018-10-09T04:00:50.308Z,891.69
2018-10-09T04:01:50.298Z,891.67
2018-10-09T04:02:50.284Z,891.70
2018-10-09T04:03:50.277Z,891.69
2018-10-09T04:04:50.263Z,891.69
2018-10-09T04:05:50.249Z,891.66
2018-10-09T04:06:50.247Z,891.67
2018-10-09T04:07:50.225Z,891.69
2018-10-09T04:08:50.257Z,891.69
2018-10-09T04:09:50.210Z,891.69
2018-10-09T04:10:50.193Z,891.66
2018-10-09T04:11:50.192Z,891.68
2018-10-09T04:12:50.244Z,891.69
2018-10-09T04:13:50.161Z,891.75
2018-10-09T04:14:50.148Z,891.72
2018-10-09T04:15:50.136Z,891.70
2018-10-09T04:16:50.126Z,891.69
2018-10-09T04:17:50.116Z,891.74
2018-10-09T04:18:50.100Z,891.73
2018-10-09T04:19:50.089Z,891.73
2018-10-09T04:20:50.084Z,891.73
2018-10-09T04:21:50.070Z,891.75
2018-10-09T04:22:50.057Z,891.79
2018-10-09T04:23:50.044Z,891.77
2018-10-09T04:24:50.035Z,891.78
2018-10-09T04:25:50.021Z,891.82
2018-10-09T04:26:50.015Z,891.79
2018-10-09T04:27:50.000Z,891.77
2018-10-09T04:28:49.982Z,891.83
2018-10-09T04:29:49.970Z,891.81
2018-10-09T04:30:49.963Z,891.83
2018-10-09T04:31:49.951Z,891.85
2018-10-09T04:32:49.938Z,891.86
2018-10-09T04:33:49.932Z,891.87
2018-10-09T04:34:49.923Z,891.87
2018-10-09T04:35:49.900Z,891.90
2018-10-09T04:36:49.897Z,891.93
2018-10-09T04:37:49.902Z,891.90
2018-10-09T04:38:49.869Z,891.93
2018-10-09T04:39:49.859Z,891.93
2018-10-09T04:40:49.844Z,891.93
2018-10-09T04:41:49.835Z,891.91
2018-10-09T04:42:49.821Z,891.94
2018-10-09T04:43:49.808Z,891.92
2018-10-09T04:44:49.798Z,891.94
2018-10-09T04:45:49.784Z,891.92
2018-10-09T04:46:49.779Z,891.94
2018-10-09T04:47:49.763Z,891.92
2018-10-09T04:48:49.754Z,891.90
2018-10-09T04:49:49.738Z,891.91
2018-10-09T04:50:49.732Z,891.93
2018-10-09T04:51:49.712Z,891.92
2018-10-09T04:52:49.708Z,891.96
2018-10-09T04:53:49.697Z,891.96
2018-10-09T04:54:49.677Z,891.96
2018-10-09T04:55:49.667Z,892.01
2018-10-09T04:56:49.656Z,891.99
2018-10-09T04:57:49.654Z,892.01
2018-10-09T04:58:49.636Z,892.00
2018-10-09T04:59:49.617Z,891.97
2018-10-09T05:00:49.690Z,891.95
2018-10-09T05:01:49.599Z,891.94
2018-10-09T05:02:49.585Z,891.91
2018-10-09T05:03:49.571Z,891.95
2018-10-09T05:04:49.566Z,891.93
2018-10-09T05:05:49.550Z,891.92
2018-10-09T05:06:49.541Z,891.91
2018-10-09T05:07:49.528Z,891.93
2018-10-09T05:08:49.511Z,891.91
2018-10-09T05:09:49.501Z,891.93
2018-10-09T05:10:49.495Z,891.91
2018-10-09T05:11:49.482Z,891.95
2018-10-09T05:12:49.472Z,891.92
2018-10-09T05:13:49.450Z,891.96
2018-10-09T05:14:49.444Z,892.00
2018-10-09T05:15:49.432Z,891.94
2018-10-09T05:16:49.417Z,891.97
2018-10-09T05:17:49.495Z,891.97
2018-10-09T05:18:49.397Z,891.98
2018-10-09T05:19:49.383Z,892.03
2018-10-09T05:20:49.374Z,892.02
2018-10-09T05:21:49.358Z,891.96
2018-10-09T05:22:49.348Z,891.99
2018-10-09T05:23:49.340Z,892.02
2018-10-09T05:24:49.323Z,892.01
2018-10-09T05:25:49.311Z,892.00
2018-10-09T05:26:49.299Z,892.06
2018-10-09T05:27:49.289Z,892.04
2018-10-09T05:28:49.277Z,892.01
2018-10-09T05:29:49.263Z,892.01
2018-10-09T05:30:49.251Z,892.00
2018-10-09T05:31:49.249Z,892.04
2018-10-09T05:32:49.236Z,892.04
2018-10-09T05:33:49.217Z,892.01
2018-10-09T05:34:49.210Z,892.02
2018-10-09T05:35:49.190Z,892.01
2018-10-09T05:36:49.184Z,892.04
2018-10-09T05:37:49.264Z,892.05
2018-10-09T05:38:49.161Z,892.04
2018-10-09T05:39:49.150Z,892.03
2018-10-09T05:40:49.137Z,892.04
2018-10-09T05:41:49.124Z,892.03
2018-10-09T05:42:49.107Z,892.03
2018-10-09T05:43:49.103Z,892.02
2018-10-09T05:44:49.095Z,892.02
2018-10-09T05:45:49.073Z,892.05
2018-10-09T05:46:49.064Z,892.05
2018-10-09T05:47:49.052Z,892.04
2018-10-09T05:48:49.044Z,892.08
2018-10-09T05:49:49.028Z,892.08
2018-10-09T05:50:49.021Z,892.06
2018-10-09T05:51:49.005Z,892.09
2018-10-09T05:52:48.989Z,892.10
2018-10-09T05:53:48.983Z,892.10
2018-10-09T05:54:48.975Z,892.10
2018-10-09T05:55:48.957Z,892.13
2018-10-09T05:56:48.942Z,892.14
2018-10-09T05:57:48.940Z,892.15
2018-10-09T05:58:48.925Z,892.15
2018-10-09T05:59:48.910Z,892.16
2018-10-09T06:00:48.897Z,892.16
2018-10-09T06:01:48.884Z,892.18
2018-10-09T06:02:48.876Z,892.17
2018-10-09T06:03:48.862Z,892.14
2018-10-09T06:04:48.849Z,892.17
2018-10-09T06:05:48.860Z,892.16
2018-10-09T06:06:48.821Z,892.16
2018-10-09T06:07:48.815Z,892.22
2018-10-09T06:08:48.804Z,892.13
2018-10-09T06:09:48.793Z,892.15
2018-10-09T06:10:48.776Z,892.15
2018-10-09T06:11:48.770Z,892.17
2018-10-09T06:12:48.753Z,892.17
2018-10-09T06:13:48.742Z,892.14
2018-10-09T06:14:48.740Z,892.18
2018-10-09T06:15:48.762Z,892.17
2018-10-09T06:16:48.706Z,892.19
2018-10-09T06:17:48.696Z,892.21
2018-10-09T06:18:48.682Z,892.21
2018-10-09T06:19:48.676Z,892.23
2018-10-09T06:20:48.657Z,892.22
2018-10-09T06:21:48.649Z,892.22
2018-10-09T06:22:48.642Z,892.24
2018-10-09T06:23:48.625Z,892.26
2018-10-09T06:24:48.612Z,892.21
2018-10-09T06:25:48.600Z,892.20
2018-10-09T06:26:48.586Z,892.25
2018-10-09T06:27:48.580Z,892.19
2018-10-09T06:28:48.564Z,892.23
2018-10-09T06:29:48.553Z,892.22
2018-10-09T06:30:48.543Z,892.18
2018-10-09T06:31:48.529Z,892.21
2018-10-09T06:32:48.515Z,892.20
2018-10-09T06:33:48.542Z,892.21
2018-10-09T06:34:48.489Z,892.22
2018-10-09T06:35:48.482Z,892.19
2018-10-09T06:36:48.473Z,892.24
2018-10-09T06:37:48.462Z,892.22
2018-10-09T06:38:48.448Z,892.22
2018-10-09T06:39:48.534Z,892.22
2018-10-09T06:40:48.537Z,892.26
2018-10-09T06:41:48.406Z,892.25
2018-10-09T06:42:48.440Z,892.27
2018-10-09T06:43:48.390Z,892.28
2018-10-09T06:44:48.380Z,892.29
2018-10-09T06:45:48.363Z,892.30
2018-10-09T06:46:48.353Z,892.28
2018-10-09T06:47:48.424Z,892.33
2018-10-09T06:48:48.327Z,892.31
2018-10-09T06:49:48.319Z,892.34
2018-10-09T06:50:48.311Z,892.37
2018-10-09T06:51:48.290Z,892.36
2018-10-09T06:52:48.284Z,892.37
2018-10-09T06:53:48.443Z,892.39
2018-10-09T06:54:48.287Z,892.40
2018-10-09T06:55:48.245Z,892.43
2018-10-09T06:56:48.232Z,892.43
2018-10-09T06:57:48.223Z,892.44
2018-10-09T06:58:48.226Z,892.45
2018-10-09T06:59:48.202Z,892.46
2018-10-09T07:00:48.184Z,892.46
2018-10-09T07:01:48.181Z,892.46
2018-10-09T07:02:48.164Z,892.47
2018-10-09T07:03:48.147Z,892.48
2018-10-09T07:04:48.138Z,892.49
2018-10-09T07:05:48.125Z,892.55
2018-10-09T07:06:48.121Z,892.54
2018-10-09T07:07:48.109Z,892.57
2018-10-09T07:08:48.096Z,892.58
2018-10-09T07:09:48.082Z,892.55
2018-10-09T07:10:48.070Z,892.57
2018-10-09T07:11:48.050Z,892.55
2018-10-09T07:12:48.047Z,892.57
2018-10-09T07:13:48.061Z,892.55
2018-10-09T07:14:48.023Z,892.50
2018-10-09T07:15:48.014Z,892.48
2018-10-09T07:16:47.998Z,892.51
2018-10-09T07:17:47.990Z,892.54
2018-10-09T07:18:47.980Z,892.55
2018-10-09T07:19:47.966Z,892.55
2018-10-09T07:20:47.950Z,892.56
2018-10-09T07:21:47.938Z,892.54
2018-10-09T07:22:47.928Z,892.56
2018-10-09T07:23:47.915Z,892.53
2018-10-09T07:24:47.912Z,892.54
2018-10-09T07:25:47.894Z,892.49
2018-10-09T07:26:47.886Z,892.55
2018-10-09T07:27:47.881Z,892.53
2018-10-09T07:28:47.865Z,892.53
2018-10-09T07:29:47.867Z,892.55
2018-10-09T07:30:47.840Z,892.54
2018-10-09T07:31:47.830Z,892.52
2018-10-09T07:32:47.825Z,892.54
2018-10-09T07:33:47.809Z,892.52
2018-10-09T07:34:47.794Z,892.56
2018-10-09T07:35:47.788Z,892.54
2018-10-09T07:36:47.773Z,892.51
2018-10-09T07:37:47.762Z,892.48
2018-10-09T07:38:47.757Z,892.52
2018-10-09T07:39:47.741Z,892.52
2018-10-09T07:40:47.728Z,892.57
2018-10-09T07:41:47.717Z,892.56
2018-10-09T07:42:47.709Z,892.56
2018-10-09T07:43:47.758Z,892.59
2018-10-09T07:44:47.692Z,892.54
2018-10-09T07:45:47.677Z,892.56
2018-10-09T07:46:47.663Z,892.57
2018-10-09T07:47:47.656Z,892.54
2018-10-09T07:48:47.651Z,892.59
2018-10-09T07:49:47.637Z,892.58
2018-10-09T07:50:47.629Z,892.60
2018-10-09T07:51:47.617Z,892.61
2018-10-09T07:52:47.651Z,892.61
2018-10-09T07:53:47.595Z,892.63
2018-10-09T07:54:47.589Z,892.62
2018-10-09T07:55:47.576Z,892.65
2018-10-09T07:56:47.561Z,892.65
2018-10-09T07:57:47.553Z,892.61
2018-10-09T07:58:47.561Z,892.62
2018-10-09T07:59:47.535Z,892.61
2018-10-09T08:00:47.524Z,892.58
2018-10-09T08:01:47.515Z,892.60
2018-10-09T08:02:47.503Z,892.57
2018-10-09T08:03:47.492Z,892.58
2018-10-09T08:04:47.535Z,892.56
2018-10-09T08:05:47.472Z,892.55
2018-10-09T08:06:47.467Z,892.55
2018-10-09T08:07:47.451Z,892.54
2018-10-09T08:08:47.442Z,892.53
2018-10-09T08:09:47.430Z,892.51
2018-10-09T08:10:47.466Z,892.55
2018-10-09T08:11:47.408Z,892.55
2018-10-09T08:12:47.407Z,892.58
2018-10-09T08:13:47.394Z,892.56
2018-10-09T08:14:47.390Z,892.55
2018-10-09T08:15:47.374Z,892.58
2018-10-09T08:16:47.368Z,892.61
2018-10-09T08:17:47.352Z,892.60
2018-10-09T08:18:47.350Z,892.65
2018-10-09T08:19:47.339Z,892.64
2018-10-09T08:20:47.329Z,892.65
2018-10-09T08:21:47.316Z,892.67
2018-10-09T08:22:47.351Z,892.68
2018-10-09T08:23:47.301Z,892.67
2018-10-09T08:24:47.298Z,892.68
2018-10-09T08:25:47.284Z,892.66
2018-10-09T08:26:47.271Z,892.70
2018-10-09T08:27:47.265Z,892.70
2018-10-09T08:28:47.255Z,892.69
2018-10-09T08:29:47.243Z,892.68
2018-10-09T08:30:47.230Z,892.69
2018-10-09T08:31:47.228Z,892.65
2018-10-09T08:32:47.214Z,892.64
2018-10-09T08:33:47.226Z,892.64
2018-10-09T08:34:47.202Z,892.62
2018-10-09T08:35:47.214Z,892.61
2018-10-09T08:36:47.184Z,892.60
2018-10-09T08:37:47.175Z,892.57
2018-10-09T08:38:47.169Z,892.59
2018-10-09T08:39:47.153Z,892.56
2018-10-09T08:40:47.152Z,892.59
2018-10-09T08:41:47.138Z,892.55
2018-10-09T08:42:47.131Z,892.57
2018-10-09T08:43:47.115Z,892.56
2018-10-09T08:44:47.110Z,892.57
2018-10-09T08:45:47.101Z,892.56
2018-10-09T08:46:47.095Z,892.54
2018-10-09T08:47:47.082Z,892.55
2018-10-09T08:48:47.075Z,892.51
2018-10-09T08:49:47.075Z,892.47
2018-10-09T08:50:47.058Z,892.49
2018-10-09T08:51:47.058Z,892.48
2018-10-09T08:52:47.041Z,892.43
2018-10-09T08:53:47.033Z,892.45
2018-10-09T08:54:47.024Z,892.43
2018-10-09T08:55:47.017Z,892.42
2018-10-09T08:56:47.009Z,892.43
2018-10-09T08:57:46.995Z,892.43
2018-10-09T08:58:46.990Z,892.40
2018-10-09T08:59:46.985Z,892.38
2018-10-09T09:00:46.975Z,892.35
2018-10-09T09:01:46.971Z,892.36
2018-10-09T09:02:46.959Z,892.31
2018-10-09T09:03:46.954Z,892.31
2018-10-09T09:04:46.942Z,892.29
2018-10-09T09:05:46.942Z,892.28
2018-10-09T09:06:46.927Z,892.30
2018-10-09T09:07:46.918Z,892.31
2018-10-09T09:08:46.909Z,892.29
2018-10-09T09:09:46.930Z,892.32
2018-10-09T09:10:46.895Z,892.29
2018-10-09T09:11:46.889Z,892.27
2018-10-09T09:12:46.875Z,892.30
2018-10-09T09:13:46.870Z,892.28
2018-10-09T09:14:46.859Z,892.28
2018-10-09T09:15:46.856Z,892.30
2018-10-09T09:16:46.846Z,892.26
2018-10-09T09:17:46.838Z,892.28
2018-10-09T09:18:46.830Z,892.29
2018-10-09T09:19:46.820Z,892.28
2018-10-09T09:20:46.865Z,892.28
2018-10-09T09:21:46.806Z,892.31
2018-10-09T09:22:46.802Z,892.31
2018-10-09T09:23:46.791Z,892.29
2018-10-09T09:24:46.783Z,892.32
2018-10-09T09:25:46.776Z,892.32
2018-10-09T09:26:46.903Z,892.37
2018-10-09T09:27:46.817Z,892.31
2018-10-09T09:28:46.753Z,892.31
2018-10-09T09:29:46.746Z,892.33
2018-10-09T09:30:46.735Z,892.26
2018-10-09T09:31:46.728Z,892.28
2018-10-09T09:32:46.720Z,892.27
2018-10-09T09:33:46.712Z,892.28
2018-10-09T09:34:46.710Z,892.27
2018-10-09T09:35:46.696Z,892.21
2018-10-09T09:36:46.693Z,892.25
2018-10-09T09:37:46.681Z,892.24
2018-10-09T09:38:46.687Z,892.23
2018-10-09T09:39:46.669Z,892.20
2018-10-09T09:40:46.656Z,892.16
2018-10-09T09:41:46.656Z,892.18
2018-10-09T09:42:46.642Z,892.18
2018-10-09T09:43:46.636Z,892.18
2018-10-09T09:44:46.629Z,892.19
2018-10-09T09:45:46.685Z,892.15
2018-10-09T09:46:46.620Z,892.16
2018-10-09T09:47:46.606Z,892.14
2018-10-09T09:48:46.600Z,892.10
2018-10-09T09:49:46.594Z,892.10
2018-10-09T09:50:46.589Z,892.08
2018-10-09T09:51:46.585Z,892.06
2018-10-09T09:52:46.573Z,892.08
2018-10-09T09:53:46.565Z,892.03
2018-10-09T09:54:46.554Z,892.00
2018-10-09T09:55:46.545Z,892.01
2018-10-09T09:56:46.547Z,892.03
2018-10-09T09:57:46.595Z,892.01
2018-10-09T09:58:46.778Z,891.97
2018-10-09T09:59:46.515Z,891.94
2018-10-09T10:00:46.514Z,891.93
2018-10-09T10:01:46.498Z,891.91
2018-10-09T10:02:46.497Z,891.87
2018-10-09T10:03:46.558Z,891.90
2018-10-09T10:04:46.480Z,891.86
2018-10-09T10:05:46.474Z,891.82
2018-10-09T10:06:46.471Z,891.86
2018-10-09T10:07:46.462Z,891.82
2018-10-09T10:08:46.455Z,891.79
2018-10-09T10:09:46.445Z,891.78
2018-10-09T10:10:46.444Z,891.77
2018-10-09T10:11:46.433Z,891.77
2018-10-09T10:12:46.426Z,891.78
2018-10-09T10:13:46.422Z,891.78
2018-10-09T10:14:46.416Z,891.71
2018-10-09T10:15:46.476Z,891.71
2018-10-09T10:16:46.427Z,891.72
2018-10-09T10:17:46.386Z,891.69
2018-10-09T10:18:46.384Z,891.68
2018-10-09T10:19:46.378Z,891.71
2018-10-09T10:20:46.373Z,891.69
2018-10-09T10:21:46.364Z,891.66
2018-10-09T10:22:46.363Z,891.62
2018-10-09T10:23:46.349Z,891.60
2018-10-09T10:24:46.345Z,891.64
2018-10-09T10:25:46.337Z,891.61
2018-10-09T10:26:46.331Z,891.59
2018-10-09T10:27:46.322Z,891.59
2018-10-09T10:28:46.317Z,891.58
2018-10-09T10:29:46.310Z,891.57
2018-10-09T10:30:46.304Z,891.52
2018-10-09T10:31:46.302Z,891.58
2018-10-09T10:32:46.286Z,891.54
2018-10-09T10:33:46.279Z,891.54
2018-10-09T10:34:46.280Z,891.52
2018-10-09T10:35:46.323Z,891.49
2018-10-09T10:36:46.336Z,891.52
2018-10-09T10:37:46.259Z,891.48
2018-10-09T10:38:46.258Z,891.48
2018-10-09T10:39:46.244Z,891.50
2018-10-09T10:40:46.236Z,891.48
2018-10-09T10:41:46.234Z,891.52
2018-10-09T10:42:46.224Z,891.50
2018-10-09T10:43:46.221Z,891.48
2018-10-09T10:44:46.211Z,891.52
2018-10-09T10:45:46.201Z,891.50
2018-10-09T10:46:46.197Z,891.52
2018-10-09T10:47:46.191Z,891.50
2018-10-09T10:48:46.186Z,891.50
2018-10-09T10:49:46.176Z,891.49
2018-10-09T10:50:46.173Z,891.50
2018-10-09T10:51:46.164Z,891.51
2018-10-09T10:52:46.160Z,891.49
2018-10-09T10:53:46.153Z,891.45
2018-10-09T10:54:46.167Z,891.44
2018-10-09T10:55:46.140Z,891.44
2018-10-09T10:56:46.128Z,891.44
2018-10-09T10:57:46.123Z,891.41
2018-10-09T10:58:46.118Z,891.46
2018-10-09T10:59:46.112Z,891.44
2018-10-09T11:00:46.112Z,891.41
2018-10-09T11:01:46.136Z,891.42
2018-10-09T11:02:46.112Z,891.42
2018-10-09T11:03:46.084Z,891.41
2018-10-09T11:04:46.081Z,891.43
2018-10-09T11:05:46.084Z,891.44
2018-10-09T11:06:46.071Z,891.43
2018-10-09T11:07:46.087Z,891.41
2018-10-09T11:08:46.057Z,891.41
2018-10-09T11:09:46.041Z,891.43
2018-10-09T11:10:46.040Z,891.39
2018-10-09T11:11:46.037Z,891.41
2018-10-09T11:12:46.034Z,891.42
2018-10-09T11:13:46.035Z,891.41
2018-10-09T11:14:46.049Z,891.40
2018-10-09T11:15:46.012Z,891.40
2018-10-09T11:16:46.012Z,891.41
2018-10-09T11:17:45.997Z,891.41
2018-10-09T11:18:45.993Z,891.38
2018-10-09T11:19:45.988Z,891.37
2018-10-09T11:20:45.978Z,891.34
2018-10-09T11:21:46.016Z,891.36
2018-10-09T11:22:45.966Z,891.33
2018-10-09T11:23:45.960Z,891.34
2018-10-09T11:24:45.958Z,891.35
2018-10-09T11:25:45.945Z,891.36
2018-10-09T11:26:45.937Z,891.30
2018-10-09T11:27:45.932Z,891.31
2018-10-09T11:28:45.936Z,891.33
2018-10-09T11:29:45.927Z,891.29
2018-10-09T11:30:45.917Z,891.28
2018-10-09T11:31:45.908Z,891.29
2018-10-09T11:32:45.900Z,891.27
2018-10-09T11:33:45.890Z,891.25
2018-10-09T11:34:45.890Z,891.24
2018-10-09T11:35:45.881Z,891.21
2018-10-09T11:36:45.875Z,891.24
2018-10-09T11:37:45.872Z,891.19
2018-10-09T11:38:45.868Z,891.19
2018-10-09T11:39:45.862Z,891.17
2018-10-09T11:40:45.852Z,891.11
2018-10-09T11:41:45.848Z,891.15
2018-10-09T11:42:45.891Z,891.13
2018-10-09T11:43:45.835Z,891.11
2018-10-09T11:44:45.825Z,891.10
2018-10-09T11:45:45.819Z,891.09
2018-10-09T11:46:45.817Z,891.09
2018-10-09T11:47:45.810Z,891.07
2018-10-09T11:48:45.806Z,891.06
2018-10-09T11:49:45.806Z,891.05
2018-10-09T11:50:45.799Z,891.07
2018-10-09T11:51:45.789Z,891.08
2018-10-09T11:52:45.782Z,891.09
2018-10-09T11:53:45.777Z,891.08
2018-10-09T11:54:45.774Z,891.08
2018-10-09T11:55:45.761Z,891.11
2018-10-09T11:56:45.756Z,891.11
2018-10-09T11:57:45.751Z,891.13
2018-10-09T11:58:45.776Z,891.08
2018-10-09T11:59:45.742Z,891.07
2018-10-09T12:00:45.731Z,891.05
2018-10-09T12:01:45.723Z,891.06
2018-10-09T12:02:45.780Z,891.11
2018-10-09T12:03:45.718Z,891.07
2018-10-09T12:04:45.710Z,891.08
2018-10-09T12:05:45.771Z,891.08
2018-10-09T12:06:45.704Z,891.10
2018-10-09T12:07:45.697Z,891.08
2018-10-09T12:08:45.682Z,891.04
2018-10-09T12:09:45.680Z,891.03
2018-10-09T12:10:45.678Z,891.03
2018-10-09T12:11:45.674Z,891.01
2018-10-09T12:12:45.667Z,891.03
2018-10-09T12:13:45.661Z,890.98
2018-10-09T12:14:45.664Z,890.93
2018-10-09T12:15:45.649Z,890.93
2018-10-09T12:16:45.648Z,890.94
2018-10-09T12:17:45.633Z,890.91
2018-10-09T12:18:45.633Z,890.91
2018-10-09T12:19:45.626Z,890.89
2018-10-09T12:20:45.624Z,890.87
2018-10-09T12:21:45.614Z,890.87
2018-10-09T12:22:45.609Z,890.87
2018-10-09T12:23:45.612Z,890.88
2018-10-09T12:24:45.594Z,890.83
2018-10-09T12:25:45.596Z,890.82
2018-10-09T12:26:45.592Z,890.83
2018-10-09T12:27:45.586Z,890.83
2018-10-09T12:28:45.575Z,890.83